Nearby METAR Reports

 

LIBV - Gioia Del Colle, Italy
Distance from station: PdPdWs 15km
Aktualizacja: 15/07/2020 00:55
Bezchmurnie
Bezchmurnie
 Wiatr z Pd
Wiatr: Pd 2 km/h
Temperatura: 17°C
Punkt Rosy: 16°C
Wilgotność: 94%
Ciśnienie: 1013 hPa
Podsumowanie: Bezchmurnie
Visibility: greater than 10 km
2020/07/14 22:55 LIBV 142255Z 19001KT CAVOK 17/16 Q1013 RMK SKC VIS MIN 9999 WIND THR32 33001KT WIND THR14 18001KT BLU
LIBD - Bari/Palese Macc, Italy
Distance from station: PnPnZd 26km
Aktualizacja: 15/07/2020 01:50
Bezchmurnie
Bezchmurnie
 Wiatr z PdZd
Wiatr: PdZd 6 km/h
Temperatura: 19°C
Punkt Rosy: 14°C
Wilgotność: 73%
Ciśnienie: 1014 hPa
Podsumowanie: Bezchmurnie
Visibility: greater than 10 km
2020/07/14 23:50 LIBD 142350Z 22003KT CAVOK 19/14 Q1014
 
LIBH - Marina Di Ginosa, Italy
Distance from station: Pd 53km
Aktualizacja: 14/07/2020 19:55
NOT Current
Bezchmurnie
Bezchmurnie
 Wiatr z PdPdZd
Wiatr: PdPdZd 15 km/h
Temperatura: 27°C
Heat Index: 29°C
Punkt Rosy: 20°C
Wilgotność: 66%
Ciśnienie: 1011 hPa
Podsumowanie: Bezchmurnie
Visibility: greater than 10 km
2020/07/14 17:55 LIBH 141755Z 21008KT CAVOK 27/20 Q1011 RMK SKC QUK 1 QUL 1 W VIS MAR 20 KM VIS MIN 9999
LIBG - Grottaglie(Civ/A, Italy
Distance from station: PdWs 61km
Aktualizacja: 14/07/2020 19:50
NOT Current
Bezchmurnie
Bezchmurnie
 Wiatr z PnWs
Wiatr: PnWs 17 km/h
Temperatura: 26°C
Punkt Rosy: 12°C
Wilgotność: 42%
Ciśnienie: 1012 hPa
Podsumowanie: Bezchmurnie
Visibility: greater than 10 km
2020/07/14 17:50 LIBG 141750Z 05009KT 030V090 CAVOK 26/12 Q1012
 
LIBR - Brindisi/Casale, Italy
Distance from station: WsPdWs 96km
Aktualizacja: 15/07/2020 01:50
Bezchmurnie
Bezchmurnie
 Wiatr z Zd
Wiatr: Zd 9 km/h
Temperatura: 20°C
Punkt Rosy: 16°C
Wilgotność: 78%
Ciśnienie: 1013 hPa
Podsumowanie: Bezchmurnie
Visibility: greater than 10 km
2020/07/14 23:50 LIBR 142350Z 26005KT CAVOK 20/16 Q1013
LIBA - Amendola (it-Afb, Italy
Distance from station: PnZd 118km
Aktualizacja: 15/07/2020 00:55
Bezchmurnie
Bezchmurnie
 Wiatr z PnZd
Wiatr: PnZd 6 km/h
Temperatura: 19°C
Punkt Rosy: 11°C
Wilgotność: 60%
Ciśnienie: 1014 hPa
Podsumowanie: Bezchmurnie
Visibility: greater than 10 km
2020/07/14 22:55 LIBA 142255Z 32003KT CAVOK 19/11 Q1014 RMK SKC VIS MIN 9999 WIND THR11 29003KT WIND THR29 /////KT BLU
 
LIBF - Foggia/Gino Lisa, Italy
Distance from station: ZdPnZd 126km
Aktualizacja: 14/07/2020 17:50
NOT Current
Few Clouds
Few Clouds
 Wiatr z Ws
Wiatr: Ws 17 km/h
Temperatura: 28°C
Heat Index: 27°C
Punkt Rosy: 13°C
Wilgotność: 40%
Ciśnienie: 1012 hPa
Clouds: Few Clouds
Visibility: 10 km
Cloud details: Few Clouds 1219 m
2020/07/14 15:50 LIBF 141550Z 09009KT 9999 FEW040 28/13 Q1012
LIBN - Lecce (it-Afb), Italy
Distance from station: PdWs 132km
Aktualizacja: 15/07/2020 00:55
Bezchmurnie
Bezchmurnie
 Wiatr z Pd
Wiatr: Pd 4 km/h
Temperatura: 20°C
Punkt Rosy: 18°C
Wilgotność: 88%
Ciśnienie: 1014 hPa
Podsumowanie: Bezchmurnie
Visibility: greater than 10 km
2020/07/14 22:55 LIBN 142255Z 17002KT CAVOK 20/18 Q1014 RMK SCT FEW070 SCT100 VIS MIN 9999 WIND THR14 17003KT WIND THR32 17002KT BLU